createdAt,value
2023-04-11T00:00:14.324Z,11.44
2023-04-11T00:02:40.908Z,11.25
2023-04-11T00:05:08.122Z,11.13
2023-04-11T00:07:34.599Z,11.20
2023-04-11T00:10:01.663Z,11.30
2023-04-11T00:12:28.162Z,11.30
2023-04-11T00:14:55.378Z,11.30
2023-04-11T00:17:23.502Z,11.49
2023-04-11T00:19:53.105Z,11.23
2023-04-11T00:22:19.440Z,11.26
2023-04-11T00:24:45.839Z,11.24
2023-04-11T00:27:12.151Z,11.23
2023-04-11T00:29:38.465Z,11.23
2023-04-11T00:32:05.231Z,11.19
2023-04-11T00:34:31.553Z,10.95
2023-04-11T00:36:57.946Z,11.18
2023-04-11T00:39:26.248Z,11.10
2023-04-11T00:41:52.777Z,11.11
2023-04-11T00:44:19.072Z,11.04
2023-04-11T00:46:46.369Z,10.99
2023-04-11T00:49:13.277Z,10.89
2023-04-11T00:51:39.665Z,10.80
2023-04-11T00:54:10.108Z,10.71
2023-04-11T00:56:36.503Z,10.64
2023-04-11T00:59:03.288Z,10.77
2023-04-11T01:01:30.030Z,10.78
2023-04-11T01:03:57.110Z,10.93
2023-04-11T01:06:24.590Z,10.84
2023-04-11T01:08:51.070Z,10.66
2023-04-11T01:11:20.083Z,10.78
2023-04-11T01:13:46.758Z,10.58
2023-04-11T01:16:14.887Z,10.51
2023-04-11T01:18:41.409Z,10.42
2023-04-11T01:21:08.678Z,10.61
2023-04-11T01:23:35.369Z,10.47
2023-04-11T01:26:01.740Z,10.36
2023-04-11T01:28:28.065Z,10.45
2023-04-11T01:30:54.590Z,10.53
2023-04-11T01:33:21.120Z,10.43
2023-04-11T01:35:48.260Z,10.04
2023-04-11T01:38:14.859Z,10.27
2023-04-11T01:40:41.875Z,10.30
2023-04-11T01:43:09.779Z,10.08
2023-04-11T01:45:36.397Z,10.10
2023-04-11T01:48:07.333Z,10.26
2023-04-11T01:50:34.188Z,10.34
2023-04-11T01:53:00.530Z,10.22
2023-04-11T01:55:28.844Z,10.21
2023-04-11T01:57:55.306Z,10.11
2023-04-11T02:00:21.981Z,10.16
2023-04-11T02:02:48.399Z,10.19
2023-04-11T02:05:15.345Z,9.99
2023-04-11T02:07:41.643Z,10.04
2023-04-11T02:10:08.483Z,10.17
2023-04-11T02:12:34.791Z,10.19
2023-04-11T02:15:01.235Z,10.29
2023-04-11T02:17:30.941Z,10.24
2023-04-11T02:19:57.892Z,10.32
2023-04-11T02:22:24.759Z,10.33
2023-04-11T02:24:51.300Z,10.19
2023-04-11T02:27:17.661Z,10.08
2023-04-11T02:29:43.956Z,9.99
2023-04-11T02:32:10.625Z,10.16
2023-04-11T02:34:37.992Z,10.00
2023-04-11T02:37:04.339Z,10.00
2023-04-11T02:39:31.358Z,10.09
2023-04-11T02:41:57.800Z,10.00
2023-04-11T02:44:26.138Z,10.04
2023-04-11T02:46:52.610Z,10.04
2023-04-11T02:49:19.924Z,10.17
2023-04-11T02:51:47.493Z,9.98
2023-04-11T02:54:13.798Z,9.93
2023-04-11T02:56:40.179Z,10.11
2023-04-11T02:59:07.112Z,10.25
2023-04-11T03:01:34.221Z,10.18
2023-04-11T03:04:00.957Z,10.03
2023-04-11T03:06:37.728Z,10.07
2023-04-11T03:09:04.567Z,10.25
2023-04-11T03:11:32.865Z,10.24
2023-04-11T03:13:59.372Z,9.92
2023-04-11T03:16:28.025Z,9.97
2023-04-11T03:18:54.720Z,9.87
2023-04-11T03:21:21.285Z,9.99
2023-04-11T03:23:48.150Z,9.97
2023-04-11T03:26:15.837Z,9.99
2023-04-11T03:28:43.538Z,10.04
2023-04-11T03:31:12.051Z,10.00
2023-04-11T03:33:39.260Z,9.67
2023-04-11T03:36:06.451Z,9.72
2023-04-11T03:38:33.714Z,9.74
2023-04-11T03:41:00.141Z,9.91
2023-04-11T03:43:27.199Z,9.82
2023-04-11T03:45:53.847Z,9.81
2023-04-11T03:48:33.444Z,9.73
2023-04-11T03:51:04.776Z,9.97
2023-04-11T03:53:38.488Z,9.94
2023-04-11T03:56:18.953Z,9.85
2023-04-11T03:58:45.356Z,9.69
2023-04-11T04:01:12.280Z,10.03
2023-04-11T04:03:39.446Z,9.96
2023-04-11T04:06:09.583Z,9.86
2023-04-11T04:08:36.567Z,9.68
2023-04-11T04:11:03.120Z,9.66
2023-04-11T04:13:32.116Z,9.60
2023-04-11T04:16:10.568Z,9.62
2023-04-11T04:18:39.214Z,9.63
2023-04-11T04:21:07.371Z,9.58
2023-04-11T04:23:36.023Z,9.54
2023-04-11T04:26:24.729Z,9.54
2023-04-11T04:29:05.642Z,9.56
2023-04-11T04:31:50.473Z,9.61
2023-04-11T04:34:21.750Z,9.69
2023-04-11T04:36:49.624Z,9.62
2023-04-11T04:39:25.288Z,9.50
2023-04-11T04:41:58.219Z,9.57
2023-04-11T04:44:29.042Z,9.55
2023-04-11T04:46:58.949Z,9.54
2023-04-11T04:49:27.518Z,9.54
2023-04-11T04:51:53.822Z,9.61
2023-04-11T04:54:20.427Z,9.47
2023-04-11T04:56:48.125Z,9.37
2023-04-11T04:59:16.101Z,9.31
2023-04-11T05:01:47.090Z,9.11
2023-04-11T05:04:14.077Z,9.12
2023-04-11T05:06:48.874Z,9.28
2023-04-11T05:09:17.202Z,9.24
2023-04-11T05:11:44.405Z,9.23
2023-04-11T05:14:10.759Z,9.16
2023-04-11T05:16:40.705Z,9.20
2023-04-11T05:19:07.601Z,9.18
2023-04-11T05:21:38.473Z,9.22
2023-04-11T05:24:05.170Z,9.22
2023-04-11T05:26:35.499Z,9.09
2023-04-11T05:29:02.369Z,9.24
2023-04-11T05:31:28.901Z,9.20
2023-04-11T05:33:56.489Z,9.21
2023-04-11T05:36:24.242Z,9.24
2023-04-11T05:38:50.664Z,9.28
2023-04-11T05:41:17.076Z,9.30
2023-04-11T05:43:43.378Z,9.26
2023-04-11T05:46:09.836Z,9.34
2023-04-11T05:48:36.257Z,9.32
2023-04-11T05:51:02.594Z,9.38
2023-04-11T05:53:29.088Z,9.27
2023-04-11T05:55:55.577Z,9.38
2023-04-11T05:58:22.937Z,9.41
2023-04-11T06:00:49.558Z,9.48
2023-04-11T06:03:16.934Z,9.46
2023-04-11T06:05:43.535Z,9.39
2023-04-11T06:08:10.326Z,9.51
2023-04-11T06:10:36.717Z,9.49
2023-04-11T06:13:03.122Z,9.50
2023-04-11T06:15:29.514Z,9.53
2023-04-11T06:17:56.000Z,9.48
2023-04-11T06:20:23.658Z,9.79
2023-04-11T06:22:53.157Z,9.90
2023-04-11T06:25:21.007Z,9.92
2023-04-11T06:27:48.178Z,9.96
2023-04-11T06:30:15.099Z,9.75
2023-04-11T06:32:41.850Z,9.75
2023-04-11T06:35:08.870Z,9.46
2023-04-11T06:37:35.472Z,9.78
2023-04-11T06:40:02.103Z,9.85
2023-04-11T06:42:28.440Z,9.87
2023-04-11T06:44:54.725Z,9.90
2023-04-11T06:47:21.185Z,10.07
2023-04-11T06:49:47.539Z,10.13
2023-04-11T06:52:13.875Z,10.35
2023-04-11T06:54:40.660Z,10.35
2023-04-11T06:57:07.080Z,10.45
2023-04-11T06:59:34.688Z,10.41
2023-04-11T07:02:01.154Z,10.50
2023-04-11T07:04:27.689Z,10.60
2023-04-11T07:06:54.171Z,10.57
2023-04-11T07:09:20.580Z,10.79
2023-04-11T07:11:47.015Z,10.85
2023-04-11T07:14:13.367Z,10.89
2023-04-11T07:16:39.916Z,11.02
2023-04-11T07:19:06.386Z,11.09
2023-04-11T07:21:33.256Z,11.03
2023-04-11T07:24:00.918Z,11.06
2023-04-11T07:26:31.972Z,11.13
2023-04-11T07:28:59.432Z,11.33
2023-04-11T07:31:27.226Z,11.45
2023-04-11T07:33:53.894Z,11.38
2023-04-11T07:36:20.647Z,11.40
2023-04-11T07:38:46.990Z,11.34
2023-04-11T07:41:13.406Z,11.49
2023-04-11T07:43:40.527Z,11.61
2023-04-11T07:46:07.067Z,11.77
2023-04-11T07:48:33.457Z,11.74
2023-04-11T07:50:59.891Z,11.62
2023-04-11T07:53:26.812Z,11.55
2023-04-11T07:55:53.184Z,11.38
2023-04-11T07:58:19.678Z,11.39
2023-04-11T08:00:46.154Z,11.31
2023-04-11T08:03:13.661Z,11.32
2023-04-11T08:05:40.319Z,11.34
2023-04-11T08:08:07.010Z,11.30
2023-04-11T08:10:34.000Z,11.26
2023-04-11T08:13:00.873Z,11.19
2023-04-11T08:15:27.279Z,10.96
2023-04-11T08:17:56.943Z,10.99
2023-04-11T08:20:24.167Z,10.95
2023-04-11T08:22:50.665Z,11.04
2023-04-11T08:25:22.764Z,11.10
2023-04-11T08:27:50.772Z,11.10
2023-04-11T08:30:17.464Z,11.11
2023-04-11T08:32:44.057Z,11.03
2023-04-11T08:35:10.669Z,11.12
2023-04-11T08:37:36.993Z,11.03
2023-04-11T08:40:06.688Z,11.15
2023-04-11T08:42:33.787Z,11.33
2023-04-11T08:45:03.088Z,11.37
2023-04-11T08:47:29.738Z,11.61
2023-04-11T08:49:59.050Z,11.96
2023-04-11T08:52:25.545Z,12.21
2023-04-11T08:54:56.554Z,12.31
2023-04-11T08:57:28.254Z,12.54
2023-04-11T08:59:56.246Z,12.82
2023-04-11T09:02:23.123Z,12.72
2023-04-11T09:04:49.613Z,13.03
2023-04-11T09:07:19.287Z,12.66
2023-04-11T09:09:46.190Z,13.08
2023-04-11T09:12:13.279Z,13.19
2023-04-11T09:14:39.700Z,13.22
2023-04-11T09:17:13.657Z,13.31
2023-04-11T09:19:42.914Z,13.58
2023-04-11T09:22:09.437Z,13.38
2023-04-11T09:24:36.584Z,13.44
2023-04-11T09:27:12.002Z,13.76
2023-04-11T09:29:48.419Z,13.94
2023-04-11T09:32:34.841Z,14.19
2023-04-11T09:35:15.643Z,14.24
2023-04-11T09:37:47.979Z,14.23
2023-04-11T09:40:16.296Z,14.13
2023-04-11T09:42:43.432Z,14.06
2023-04-11T09:45:18.594Z,14.02
2023-04-11T09:47:47.234Z,14.33
2023-04-11T09:50:14.085Z,14.53
2023-04-11T09:52:43.030Z,14.50
2023-04-11T09:55:11.650Z,14.61
2023-04-11T09:57:41.239Z,14.89
2023-04-11T10:00:14.492Z,15.22
2023-04-11T10:02:41.799Z,15.49
2023-04-11T10:05:10.384Z,15.86
2023-04-11T10:07:45.732Z,15.93
2023-04-11T10:10:23.573Z,15.55
2023-04-11T10:12:51.027Z,15.24
2023-04-11T10:15:18.284Z,14.74
2023-04-11T10:18:08.989Z,13.95
2023-04-11T10:20:35.662Z,13.69
2023-04-11T10:23:02.143Z,13.49
2023-04-11T10:25:28.848Z,13.85
2023-04-11T10:28:03.947Z,14.36
2023-04-11T10:30:39.350Z,14.83
2023-04-11T10:33:13.407Z,14.62
2023-04-11T10:36:02.033Z,15.10
2023-04-11T10:38:43.719Z,15.74
2023-04-11T10:41:22.223Z,16.13
2023-04-11T10:43:49.446Z,16.48
2023-04-11T10:46:24.099Z,16.78
2023-04-11T10:48:56.830Z,17.13
2023-04-11T10:51:27.704Z,17.23
2023-04-11T10:53:59.274Z,17.41
2023-04-11T10:56:45.300Z,17.57
2023-04-11T10:59:36.291Z,17.70
2023-04-11T11:02:03.290Z,18.02
2023-04-11T11:04:40.178Z,18.16
2023-04-11T11:07:12.114Z,18.30
2023-04-11T11:09:38.653Z,18.41
2023-04-11T11:12:09.164Z,18.47
2023-04-11T11:14:36.480Z,18.46
2023-04-11T11:17:03.854Z,18.58
2023-04-11T11:19:31.383Z,18.65
2023-04-11T11:22:03.684Z,18.79
2023-04-11T11:24:30.824Z,18.76
2023-04-11T11:26:58.026Z,18.93
2023-04-11T11:29:36.748Z,19.05
2023-04-11T11:32:04.145Z,18.32
2023-04-11T11:34:33.621Z,18.37
2023-04-11T11:37:04.223Z,18.67
2023-04-11T11:39:31.656Z,18.41
2023-04-11T11:41:58.610Z,17.90
2023-04-11T11:44:26.596Z,17.14
2023-04-11T11:47:06.922Z,16.72
2023-04-11T11:49:49.468Z,16.29
2023-04-11T11:52:35.251Z,16.29
2023-04-11T11:55:03.539Z,16.84
2023-04-11T11:57:29.958Z,16.84
2023-04-11T11:59:57.433Z,16.90
2023-04-11T12:02:26.042Z,17.40
2023-04-11T12:04:57.985Z,16.81
2023-04-11T12:07:24.451Z,16.11
2023-04-11T12:09:58.761Z,15.76
2023-04-11T12:12:33.353Z,15.65
2023-04-11T12:15:00.121Z,15.88
2023-04-11T12:17:32.987Z,16.38
2023-04-11T12:20:00.922Z,17.07
2023-04-11T12:22:27.285Z,17.55
2023-04-11T12:25:13.360Z,17.96
2023-04-11T12:27:41.937Z,18.22
2023-04-11T12:30:09.902Z,18.17
2023-04-11T12:32:38.592Z,18.53
2023-04-11T12:35:06.658Z,19.07
2023-04-11T12:37:33.982Z,18.72
2023-04-11T12:40:00.828Z,17.79
2023-04-11T12:42:27.696Z,17.30
2023-04-11T12:44:54.486Z,17.05
2023-04-11T12:47:21.045Z,16.52
2023-04-11T12:49:47.520Z,16.18
2023-04-11T12:52:13.849Z,16.11
2023-04-11T12:54:40.232Z,16.87
2023-04-11T12:57:07.460Z,17.46
2023-04-11T12:59:33.778Z,17.92
2023-04-11T13:02:00.235Z,17.98
2023-04-11T13:04:26.702Z,18.27
2023-04-11T13:06:53.121Z,18.47
2023-04-11T13:09:19.427Z,18.41
2023-04-11T13:11:46.016Z,18.91
2023-04-11T13:14:12.310Z,18.90
2023-04-11T13:16:38.702Z,18.95
2023-04-11T13:19:05.316Z,19.14
2023-04-11T13:21:32.528Z,19.15
2023-04-11T13:23:58.894Z,19.29
2023-04-11T13:26:25.264Z,19.27
2023-04-11T13:28:51.808Z,19.32
2023-04-11T13:31:19.211Z,19.40
2023-04-11T13:33:47.816Z,18.56
2023-04-11T13:36:14.123Z,18.28
2023-04-11T13:38:40.445Z,18.65
2023-04-11T13:41:07.043Z,18.73
2023-04-11T13:43:33.317Z,18.62
2023-04-11T13:45:59.663Z,18.41
2023-04-11T13:48:26.055Z,18.02
2023-04-11T13:50:52.533Z,17.53
2023-04-11T13:53:18.827Z,17.16
2023-04-11T13:55:47.573Z,16.88
2023-04-11T13:58:14.366Z,17.03
2023-04-11T14:00:40.909Z,17.34
2023-04-11T14:03:07.389Z,17.46
2023-04-11T14:05:35.454Z,17.60
2023-04-11T14:08:02.103Z,17.31
2023-04-11T14:10:28.664Z,17.04
2023-04-11T14:12:55.074Z,16.73
2023-04-11T14:15:21.926Z,16.52
2023-04-11T14:17:48.302Z,16.20
2023-04-11T14:20:15.003Z,16.05
2023-04-11T14:22:42.552Z,15.94
2023-04-11T14:25:13.300Z,15.82
2023-04-11T14:27:41.194Z,15.49
2023-04-11T14:30:12.535Z,15.32
2023-04-11T14:32:40.450Z,15.35
2023-04-11T14:35:09.205Z,15.20
2023-04-11T14:37:36.509Z,15.07
2023-04-11T14:40:07.825Z,15.08
2023-04-11T14:42:34.130Z,14.97
2023-04-11T14:45:00.421Z,14.91
2023-04-11T14:47:26.792Z,14.86
2023-04-11T14:49:53.219Z,14.90
2023-04-11T14:52:19.513Z,14.93
2023-04-11T14:54:45.882Z,14.84
2023-04-11T14:57:12.362Z,14.85
2023-04-11T14:59:38.752Z,14.75
2023-04-11T15:02:05.993Z,14.76
2023-04-11T15:04:32.483Z,14.97
2023-04-11T15:06:59.191Z,14.93
2023-04-11T15:09:25.633Z,14.87
2023-04-11T15:11:52.349Z,14.88
2023-04-11T15:14:18.790Z,14.85
2023-04-11T15:16:45.204Z,14.68
2023-04-11T15:19:11.500Z,14.73
2023-04-11T15:21:38.305Z,14.76
2023-04-11T15:24:07.173Z,14.70
2023-04-11T15:26:34.031Z,14.45
2023-04-11T15:29:00.628Z,14.46
2023-04-11T15:31:27.227Z,14.27
2023-04-11T15:33:57.158Z,14.25
2023-04-11T15:36:24.000Z,14.14
2023-04-11T15:38:50.346Z,14.12
2023-04-11T15:41:16.642Z,14.19
2023-04-11T15:43:42.933Z,14.12
2023-04-11T15:46:10.117Z,14.05
2023-04-11T15:48:36.496Z,13.98
2023-04-11T15:51:10.362Z,13.92
2023-04-11T15:53:36.763Z,13.97
2023-04-11T15:56:09.520Z,13.87
2023-04-11T15:58:35.802Z,13.92
2023-04-11T16:01:02.187Z,13.92
2023-04-11T16:03:32.597Z,13.73
2023-04-11T16:05:59.944Z,13.76
2023-04-11T16:08:27.350Z,13.78
2023-04-11T16:10:54.534Z,13.59
2023-04-11T16:13:20.940Z,13.69
2023-04-11T16:15:47.230Z,13.61
2023-04-11T16:18:13.618Z,13.63
2023-04-11T16:20:40.068Z,13.53
2023-04-11T16:23:06.353Z,13.62
2023-04-11T16:25:32.727Z,13.33
2023-04-11T16:27:59.047Z,13.43
2023-04-11T16:30:27.742Z,13.60
2023-04-11T16:32:54.293Z,13.70
2023-04-11T16:35:20.960Z,13.59
2023-04-11T16:37:47.265Z,13.60
2023-04-11T16:40:13.603Z,13.75
2023-04-11T16:42:40.235Z,13.60
2023-04-11T16:45:08.301Z,13.58
2023-04-11T16:47:34.584Z,13.53
2023-04-11T16:50:01.055Z,13.56
2023-04-11T16:52:28.134Z,13.46
2023-04-11T16:54:54.535Z,13.35
2023-04-11T16:57:20.892Z,13.44
2023-04-11T16:59:47.250Z,13.27
2023-04-11T17:02:13.879Z,13.36
2023-04-11T17:04:40.371Z,13.26
2023-04-11T17:07:06.920Z,13.11
2023-04-11T17:09:33.333Z,13.20
2023-04-11T17:12:00.181Z,13.15
2023-04-11T17:14:27.139Z,12.95
2023-04-11T17:16:53.531Z,13.06
2023-04-11T17:19:19.875Z,13.09
2023-04-11T17:21:46.378Z,12.81
2023-04-11T17:24:12.703Z,12.73
2023-04-11T17:26:38.998Z,12.81
2023-04-11T17:29:06.421Z,12.73
2023-04-11T17:31:32.753Z,12.68
2023-04-11T17:33:59.463Z,12.74
2023-04-11T17:36:26.017Z,12.93
2023-04-11T17:38:54.571Z,12.92
2023-04-11T17:41:21.367Z,12.76
2023-04-11T17:43:47.778Z,12.88
2023-04-11T17:46:14.290Z,12.65
2023-04-11T17:48:40.653Z,12.82
2023-04-11T17:51:07.284Z,12.68
2023-04-11T17:53:33.875Z,12.70
2023-04-11T17:56:05.673Z,12.53
2023-04-11T17:58:32.447Z,12.54
2023-04-11T18:00:58.753Z,12.72
2023-04-11T18:03:25.910Z,12.57
2023-04-11T18:05:53.892Z,12.47
2023-04-11T18:08:22.594Z,12.29
2023-04-11T18:10:52.955Z,12.37
2023-04-11T18:13:19.246Z,12.16
2023-04-11T18:15:45.594Z,12.13
2023-04-11T18:18:11.992Z,11.84
2023-04-11T18:20:38.310Z,11.87
2023-04-11T18:23:04.637Z,11.68
2023-04-11T18:25:31.163Z,11.55
2023-04-11T18:27:57.448Z,11.77
2023-04-11T18:30:23.882Z,11.56
2023-04-11T18:32:53.538Z,11.41
2023-04-11T18:35:20.666Z,11.39
2023-04-11T18:37:47.130Z,11.31
2023-04-11T18:40:14.375Z,11.39
2023-04-11T18:42:43.237Z,11.34
2023-04-11T18:45:14.118Z,11.09
2023-04-11T18:47:43.945Z,11.17
2023-04-11T18:50:10.444Z,10.96
2023-04-11T18:52:36.862Z,11.01
2023-04-11T18:55:03.551Z,11.08
2023-04-11T18:57:33.852Z,11.00
2023-04-11T19:00:12.895Z,11.13
2023-04-11T19:02:41.433Z,11.22
2023-04-11T19:05:13.368Z,11.17
2023-04-11T19:07:41.605Z,11.21
2023-04-11T19:10:09.416Z,11.34
2023-04-11T19:12:35.865Z,11.22
2023-04-11T19:15:02.465Z,11.23
2023-04-11T19:17:28.903Z,11.34
2023-04-11T19:19:55.413Z,11.22
2023-04-11T19:22:21.720Z,11.36
2023-04-11T19:24:49.674Z,11.41
2023-04-11T19:27:18.266Z,11.32
2023-04-11T19:29:47.667Z,11.32
2023-04-11T19:32:17.487Z,11.17
2023-04-11T19:34:43.949Z,11.19
2023-04-11T19:37:10.301Z,11.23
2023-04-11T19:39:38.932Z,11.10
2023-04-11T19:42:06.896Z,11.22
2023-04-11T19:44:33.272Z,11.23
2023-04-11T19:46:59.591Z,11.12
2023-04-11T19:49:25.938Z,11.27
2023-04-11T19:51:52.403Z,11.19
2023-04-11T19:54:18.813Z,11.30
2023-04-11T19:56:46.377Z,11.37
2023-04-11T19:59:12.684Z,11.29
2023-04-11T20:01:39.061Z,11.29
2023-04-11T20:04:06.189Z,11.16
2023-04-11T20:06:34.766Z,11.11
2023-04-11T20:09:01.596Z,11.15
2023-04-11T20:11:29.240Z,11.18
2023-04-11T20:13:55.912Z,11.12
2023-04-11T20:16:24.711Z,10.99
2023-04-11T20:18:52.264Z,11.06
2023-04-11T20:21:18.627Z,11.07
2023-04-11T20:23:44.899Z,11.07
2023-04-11T20:26:11.270Z,10.89
2023-04-11T20:28:37.840Z,10.72
2023-04-11T20:31:04.673Z,10.85
2023-04-11T20:33:31.407Z,10.82
2023-04-11T20:35:57.899Z,10.85
2023-04-11T20:38:24.228Z,10.71
2023-04-11T20:40:50.568Z,10.77
2023-04-11T20:43:17.543Z,10.81
2023-04-11T20:45:45.593Z,10.54
2023-04-11T20:48:13.551Z,10.50
2023-04-11T20:50:41.815Z,10.34
2023-04-11T20:53:08.468Z,10.39
2023-04-11T20:55:34.913Z,10.41
2023-04-11T20:58:01.343Z,10.43
2023-04-11T21:00:27.696Z,10.46
2023-04-11T21:02:54.200Z,10.45
2023-04-11T21:05:24.694Z,10.38
2023-04-11T21:07:54.081Z,10.47
2023-04-11T21:10:20.841Z,10.37
2023-04-11T21:12:56.398Z,10.36
2023-04-11T21:15:22.806Z,10.16
2023-04-11T21:17:49.985Z,10.31
2023-04-11T21:20:19.786Z,10.34
2023-04-11T21:22:52.927Z,10.50
2023-04-11T21:25:19.695Z,10.45
2023-04-11T21:27:46.597Z,10.50
2023-04-11T21:30:14.183Z,10.57
2023-04-11T21:32:40.917Z,10.49
2023-04-11T21:35:09.487Z,10.32
2023-04-11T21:37:36.202Z,10.38
2023-04-11T21:40:03.448Z,10.50
2023-04-11T21:42:29.752Z,10.52
2023-04-11T21:44:56.117Z,10.55
2023-04-11T21:47:22.548Z,10.54
2023-04-11T21:49:49.221Z,10.39
2023-04-11T21:52:15.660Z,10.15
2023-04-11T21:54:46.850Z,10.23
2023-04-11T21:57:13.245Z,10.18
2023-04-11T21:59:39.611Z,10.16
2023-04-11T22:02:06.642Z,10.24
2023-04-11T22:04:47.295Z,10.44
2023-04-11T22:07:18.207Z,10.35
2023-04-11T22:09:46.901Z,10.27
2023-04-11T22:12:17.536Z,10.42
2023-04-11T22:14:43.861Z,10.37
2023-04-11T22:17:10.260Z,10.24
2023-04-11T22:19:36.567Z,10.23
2023-04-11T22:22:03.170Z,10.21
2023-04-11T22:24:32.571Z,10.17
2023-04-11T22:26:58.852Z,10.19
2023-04-11T22:29:30.177Z,10.11
2023-04-11T22:32:00.864Z,10.13
2023-04-11T22:34:28.060Z,10.15
2023-04-11T22:36:54.418Z,9.99
2023-04-11T22:39:21.855Z,10.16
2023-04-11T22:41:50.498Z,10.00
2023-04-11T22:44:17.766Z,10.11
2023-04-11T22:47:05.989Z,10.19
2023-04-11T22:49:40.011Z,10.01
2023-04-11T22:52:07.228Z,10.10
2023-04-11T22:54:34.843Z,10.08
2023-04-11T22:57:01.504Z,10.18
2023-04-11T22:59:28.198Z,10.09
2023-04-11T23:01:54.911Z,10.07
2023-04-11T23:04:22.024Z,10.13
2023-04-11T23:06:51.398Z,9.93
2023-04-11T23:09:18.092Z,9.93
2023-04-11T23:11:45.367Z,9.92
2023-04-11T23:14:12.081Z,9.93
2023-04-11T23:16:38.390Z,10.03
2023-04-11T23:19:04.835Z,9.98
2023-04-11T23:21:31.120Z,10.03
2023-04-11T23:23:58.024Z,9.93
2023-04-11T23:26:24.679Z,10.01
2023-04-11T23:28:51.018Z,10.11
2023-04-11T23:31:20.278Z,10.06
2023-04-11T23:33:46.641Z,10.07
2023-04-11T23:36:13.533Z,10.16
2023-04-11T23:38:39.985Z,10.28
2023-04-11T23:41:06.677Z,10.28
2023-04-11T23:43:33.088Z,10.27
2023-04-11T23:45:59.506Z,10.17
2023-04-11T23:48:26.180Z,10.24
2023-04-11T23:50:52.731Z,10.20
2023-04-11T23:53:19.049Z,10.07
2023-04-11T23:55:45.395Z,10.27
2023-04-11T23:58:11.688Z,10.20
